Ocean Sapphire — VRKL8 — position and weather

sailwx.info

Track history (hours):
 
Tides and Currents Weather Stations Pressure Air Temp Water Temp Dewpoint Dewpoint Depression Visibility Wind Speed Wind Dir Waves Ship Positions

Ocean Sapphire

Last reported at 2015-Apr-16 14:30 UTC. Time now 2015-Apr-18 20:47 UTC.
Position S 37°19' E 150°31'.

Length 229 m; draft 8.4 m.

Type: Cargo ship. MMSI: 477065400.

Date/timePositionNaut miles runAvg speedWind from/ knotsBaromVisibWave heightAir tempDewpointWater temp
2015-Apr-16 14:30S 37°19' E 150°31'178 9.9
2015-Apr-15 20:33S 39°00' E 147°24'9 9.5
2015-Apr-15 19:33S 39°03' E 147°13'10 9.6
2015-Apr-15 18:33S 39°06' E 147°01'1010.0
2015-Apr-15 17:33S 39°11' E 146°50'1010.3
2015-Apr-15 16:33S 39°16' E 146°38'1010.3
2015-Apr-15 15:33S 39°18' E 146°25'1010.4
2015-Apr-15 14:33S 39°18' E 146°11'1010.1
2015-Apr-15 13:33S 39°18' E 145°58'1010.0
2015-Apr-15 12:33S 39°18' E 145°45'1010.0
2015-Apr-15 11:33S 39°18' E 145°33'1010.0
2015-Apr-15 10:33S 39°19' E 145°20'1110.2
2015-Apr-15 09:29S 39°19' E 145°06'7715.3
2015-Apr-15 04:26S 39°21' E 143°26'7 3.5
2015-Apr-15 02:27S 39°21' E 143°17'2110.4
2015-Apr-15 00:26S 39°22' E 142°50'52 8.7
2015-Apr-14 18:24S 39°17' E 141°43'1210.2
2015-Apr-14 17:12S 39°15' E 141°27'710.3
2015-Apr-14 16:32S 39°14' E 141°18'  
Track history (hours):
 
Tides and Currents Weather Stations Pressure Air Temp Water Temp Dewpoint Dewpoint Depression Visibility Wind Speed Wind Dir Waves Ship Positions

Ocean Sapphire

Last reported at 2015-Apr-16 14:30 UTC. Time now 2015-Apr-18 20:47 UTC.
Position S 37°19' E 150°31'.

Length 229 m; draft 8.4 m.

Type: Cargo ship. MMSI: 477065400.

Date/timePositionNaut miles runAvg speedWind from/ knotsBaromVisibWave heightAir tempDewpointWater temp
2015-Apr-16 14:30S 37°19' E 150°31'178 9.9
2015-Apr-15 20:33S 39°00' E 147°24'9 9.5
2015-Apr-15 19:33S 39°03' E 147°13'10 9.6
2015-Apr-15 18:33S 39°06' E 147°01'1010.0
2015-Apr-15 17:33S 39°11' E 146°50'1010.3
2015-Apr-15 16:33S 39°16' E 146°38'1010.3
2015-Apr-15 15:33S 39°18' E 146°25'1010.4
2015-Apr-15 14:33S 39°18' E 146°11'1010.1
2015-Apr-15 13:33S 39°18' E 145°58'1010.0
2015-Apr-15 12:33S 39°18' E 145°45'1010.0
2015-Apr-15 11:33S 39°18' E 145°33'1010.0
2015-Apr-15 10:33S 39°19' E 145°20'1110.2
2015-Apr-15 09:29S 39°19' E 145°06'7715.3
2015-Apr-15 04:26S 39°21' E 143°26'7 3.5
2015-Apr-15 02:27S 39°21' E 143°17'2110.4
2015-Apr-15 00:26S 39°22' E 142°50'52 8.7
2015-Apr-14 18:24S 39°17' E 141°43'1210.2
2015-Apr-14 17:12S 39°15' E 141°27'710.3
2015-Apr-14 16:32S 39°14' E 141°18'  

Dump ship's entire track history